Berwyn, NY

4:47 PM EST on January 24, 2017 (GMT -0500)
Pompey Hill | | Change Station

Elev 1480 ft 42.89 °N, 76.04 °W | Updated 2 minutes ago

Overcast
Overcast
28.0 °F
Feels Like 28 °F
N
0.0
Wind Variable Wind from North
Gusts 0.0 mph

Today
High -- | Low -- °F
--% Chance of Precip.
Yesterday
High -- | Low -- °F
Precip. -- in
Pressure 29.56 in
Visibility 5.0 miles
Clouds Mostly Cloudy 800 ft
Overcast 1300 ft
Windchill 28 °F
Dew Point -21 °F
Humidity 10%
Rainfall 0.00 in
Snow Depth Not available.
7:26 AM 5:06 PM
Waning Crescent, 9% visible
METAR KSYR 242054Z 28009KT 5SM -SN BR BKN008 OVC013 M01/M01 A2955 RMK AO2 SLP009 PCPN VERY LIGHT P0000 60000 T10061011 53006
Pressure 29.56 in
Visibility 5.0 miles
Clouds Mostly Cloudy 800 ft
Overcast 1300 ft
Windchill 28 °F
Dew Point -21 °F
Humidity 10%
Rainfall 0.00 in
Snow Depth Not available.
7:26 AM 5:06 PM
Waning Crescent, 9% visible
METAR KSYR 242054Z 28009KT 5SM -SN BR BKN008 OVC013 M01/M01 A2955 RMK AO2 SLP009 PCPN VERY LIGHT P0000 60000 T10061011 53006

Get Your Daily Forecast Email!

Thanks for signing up!

Be on the lookout for a verification email in your inbox.

You'll start receiving the daily forecast at 8 AM.

×

10-Day Weather Forecast

Almanac

Astronomy

Jan. 24, 2017 Rise Set
Actual Time
Civil Twilight
Nautical Twilight
Astronomical Twilight
Moon
Length of Visible Light
Length of Day
Tomorrow will be .
, % of the Moon is Illuminated

Today's Extremes

State Highs State Lows

Community

WunderPhotos

Upload Photos

1,962,540 photos uploaded!

WunderBlog® & News

Nearby

Air Quality

  Air Quality AQ Index Pollutant
Not available.

Snow Depth

Station Depth Elevation

Earthquake Activity

City Distance Mag. Time & Date
Minimum magnitude displayed is 2.5.

Coastal Water Temperatures

Place Temperature

Stations

Nearby Weather Stations

Station Location Temp. Windchill Dew Point Humidity Wind Precip. Elev Updated Type
                   

Watches & Warnings

There are currently no watches in effect.